RJTA(METAR)
08/25 22:00
METAR RJTA 251300Z 19005KT 9999 FEW030 SCT150 BKN/// 25/22 Q1011 RMK
1CU030 3AC150 A2986=
戻る
トップページへ戻る
IMOC Co,.Ltd.